Pagrindinis puslapis
METAR-TAF:

METAR-TAF

Oro uostai :

Trondheimas, Norvegija

platuma: 63-28N, ilguma: 010-56E, Aukštis: 1 m

Dabartinis oras

Ataskaita buvo paskelbta 44 minutes, ne 13:20 UTC
Vėjas 11 kt iš Vakarų
Temperatūra 7°C
Drėgmė 70%
Slėgis 1020 hPa
Matomumas 10 km arba daugiau
nėra debesų žemiau 1500 m ir nėra kamuolinių lietaus debesų

METAR: ENVA 201320Z 27011KT CAVOK 07/02 Q1020 NOSIG RMK WIND 670FT 28012KT

Laikas: 16:04 (14:04 UTC)

Prognozė

Ataskaita buvo paskelbta 3 valandos ir 4 minutes, ne 11:00 UTC
Prognozė galioja nuo 20 metu 12 UTC su 21 metu 12 UTC
Vėjas 12 kt iš Vakarų
Matomumas 10 km arba daugiau
Išsisklaidę debesys ne aukštis 4500 ft
Laikinai
nuo 20 metu 12 UTC su 20 metu 15 UTC
Mažai debesys ne aukštis 4000 ft, Liūtiniai kamuoliniai debesys.
Tapsmas
nuo 20 metu 18 UTC su 20 metu 20 UTC
Vėjas 5 kt nuo kintamojo kryptimis
Tapsmas
nuo 21 metu 09 UTC su 21 metu 12 UTC
Vėjas 10 kt iš Vakarų

TAF: ENVA 201100Z 2012/2112 26012KT 9999 SCT045 TEMPO 2012/2015 FEW040CB BECMG 2018/2020 VRB05KT BECMG 2109/2112 27010KT

Orai ataskaitas ir orų prognozės (METAR, TAF).

turimą stotys yra geltonos ir raudonos taškus žemėlapyje.

Perkelti pele per norėdami pamatyti stoties vardą.

Tada spustelėkite, norėdami matyti oro stebėjimo ir prognozės.

Norėdami pakeisti žemėlapį: spustelėkite ant žalios mygtukų su juodo kryžiaus žemyn,; žalią mygtuką su brūkšneliu, jei norite nutolinti; arba žalių rodyklių gretimoms žemėlapius.


METAR-TAF: